Mountain View, North Carolina
Current Conditions -  °F | °C
As of 1:53 PM on Tuesday 21 Oct 2014 (Local Time) from KHKY Reporting Station
Few Clouds Few Clouds  
Wind Chill: 69°   Ceiling: Unl
Heat Index: 69°   Visibility: 10mi
Dew Point: 43°   Wind: 7mph
Humidity: 39%   Direction: 260°W
Pressure: 29.9"   Gusts: NA
Location:  35.6584°N, 81.3878°W
Report Text: KHKY 211753Z 26006KT 10SM FEW070 21/06 A2990 RMK AO2 SLP111 T02060061 10211 20100 58016
Loading
Personal Weather Stations






























Interactive Weather Map
Tropical Storm Tracking
New forecast layout! Learn more

10-Day Weather Forecast

Advertisements
Track Severe Weather on mobile